sensor_id;sensor_type;location;lat;lon;timestamp;temperature;humidity
21393;DHT22;10857;52.228;21.026;2022-10-13T05:44:16;8.40;99.90
21393;DHT22;10857;52.228;21.026;2022-10-13T05:46:54;8.40;99.90
21393;DHT22;10857;52.228;21.026;2022-10-13T05:49:21;8.50;99.90
21393;DHT22;10857;52.228;21.026;2022-10-13T05:51:50;8.50;99.90
21393;DHT22;10857;52.228;21.026;2022-10-13T05:54:26;8.50;99.90
21393;DHT22;10857;52.228;21.026;2022-10-13T05:57:20;8.60;99.90
21393;DHT22;10857;52.228;21.026;2022-10-13T05:59:52;8.70;99.90
21393;DHT22;10857;52.228;21.026;2022-10-13T06:02:23;8.70;99.90
21393;DHT22;10857;52.228;21.026;2022-10-13T06:04:54;8.70;99.90
21393;DHT22;10857;52.228;21.026;2022-10-13T06:07:22;8.80;99.90
21393;DHT22;10857;52.228;21.026;2022-10-13T06:09:50;8.80;99.90
21393;DHT22;10857;52.228;21.026;2022-10-13T06:12:17;8.90;99.90
21393;DHT22;10857;52.228;21.026;2022-10-13T06:14:44;8.90;99.90
21393;DHT22;10857;52.228;21.026;2022-10-13T06:17:14;9.00;99.90
21393;DHT22;10857;52.228;21.026;2022-10-13T06:19:42;8.90;99.90
21393;DHT22;10857;52.228;21.026;2022-10-13T06:22:11;9.00;99.90
21393;DHT22;10857;52.228;21.026;2022-10-13T06:24:38;9.10;99.90
21393;DHT22;10857;52.228;21.026;2022-10-13T06:27:09;9.10;99.90
21393;DHT22;10857;52.228;21.026;2022-10-13T06:29:36;9.20;99.90
21393;DHT22;10857;52.228;21.026;2022-10-13T06:32:04;9.30;99.90
21393;DHT22;10857;52.228;21.026;2022-10-13T06:34:32;9.30;99.90
21393;DHT22;10857;52.228;21.026;2022-10-13T06:36:59;9.50;99.90
21393;DHT22;10857;52.228;21.026;2022-10-13T06:39:26;9.60;99.90
21393;DHT22;10857;52.228;21.026;2022-10-13T06:41:53;9.70;99.90
21393;DHT22;10857;52.228;21.026;2022-10-13T06:44:31;9.70;99.90
21393;DHT22;10857;52.228;21.026;2022-10-13T06:47:01;9.90;99.90
21393;DHT22;10857;52.228;21.026;2022-10-13T06:49:29;10.00;99.90
21393;DHT22;10857;52.228;21.026;2022-10-13T06:51:56;10.00;99.90
21393;DHT22;10857;52.228;21.026;2022-10-13T06:54:23;10.10;99.90
21393;DHT22;10857;52.228;21.026;2022-10-13T06:56:50;10.10;99.90
21393;DHT22;10857;52.228;21.026;2022-10-13T06:59:17;10.10;99.90
21393;DHT22;10857;52.228;21.026;2022-10-13T07:01:45;10.20;99.90
21393;DHT22;10857;52.228;21.026;2022-10-13T07:04:14;10.20;99.90
21393;DHT22;10857;52.228;21.026;2022-10-13T07:06:41;10.30;99.90
21393;DHT22;10857;52.228;21.026;2022-10-13T07:09:08;10.40;99.90
21393;DHT22;10857;52.228;21.026;2022-10-13T07:11:36;10.50;99.90
21393;DHT22;10857;52.228;21.026;2022-10-13T07:14:03;10.50;99.90
21393;DHT22;10857;52.228;21.026;2022-10-13T07:16:30;10.60;99.90
21393;DHT22;10857;52.228;21.026;2022-10-13T07:18:57;10.80;99.90
21393;DHT22;10857;52.228;21.026;2022-10-13T07:21:24;11.00;99.90
21393;DHT22;10857;52.228;21.026;2022-10-13T07:23:51;11.20;99.90
21393;DHT22;10857;52.228;21.026;2022-10-13T07:26:18;11.10;99.90
21393;DHT22;10857;52.228;21.026;2022-10-13T07:28:45;11.20;99.90
21393;DHT22;10857;52.228;21.026;2022-10-13T07:31:15;11.20;99.90
21393;DHT22;10857;52.228;21.026;2022-10-13T07:33:46;11.20;99.90
21393;DHT22;10857;52.228;21.026;2022-10-13T07:36:15;11.20;99.90
21393;DHT22;10857;52.228;21.026;2022-10-13T07:38:42;11.20;99.90
21393;DHT22;10857;52.228;21.026;2022-10-13T07:41:11;11.20;99.90
21393;DHT22;10857;52.228;21.026;2022-10-13T07:43:38;11.10;99.90
21393;DHT22;10857;52.228;21.026;2022-10-13T07:46:07;11.10;99.90
21393;DHT22;10857;52.228;21.026;2022-10-13T07:48:35;11.10;99.90
21393;DHT22;10857;52.228;21.026;2022-10-13T07:51:04;11.20;99.90
21393;DHT22;10857;52.228;21.026;2022-10-13T07:53:32;11.10;99.90
21393;DHT22;10857;52.228;21.026;2022-10-13T07:56:02;11.10;99.90
21393;DHT22;10857;52.228;21.026;2022-10-13T07:58:29;11.10;99.90
21393;DHT22;10857;52.228;21.026;2022-10-13T08:00:58;11.10;99.90
21393;DHT22;10857;52.228;21.026;2022-10-13T08:03:26;11.20;99.90
21393;DHT22;10857;52.228;21.026;2022-10-13T08:05:53;11.30;99.90
21393;DHT22;10857;52.228;21.026;2022-10-13T08:08:20;11.30;99.90
21393;DHT22;10857;52.228;21.026;2022-10-13T08:10:47;11.60;99.90
21393;DHT22;10857;52.228;21.026;2022-10-13T08:13:14;11.60;99.90
21393;DHT22;10857;52.228;21.026;2022-10-13T08:15:43;11.60;99.90
21393;DHT22;10857;52.228;21.026;2022-10-13T08:18:12;11.60;99.90
21393;DHT22;10857;52.228;21.026;2022-10-13T08:20:41;11.70;99.90
21393;DHT22;10857;52.228;21.026;2022-10-13T08:23:10;11.80;99.90
21393;DHT22;10857;52.228;21.026;2022-10-13T08:25:43;11.90;99.90
21393;DHT22;10857;52.228;21.026;2022-10-13T08:28:25;11.90;99.90
21393;DHT22;10857;52.228;21.026;2022-10-13T08:30:56;12.00;99.90
21393;DHT22;10857;52.228;21.026;2022-10-13T08:33:25;12.00;99.90
21393;DHT22;10857;52.228;21.026;2022-10-13T08:35:52;12.10;99.90
21393;DHT22;10857;52.228;21.026;2022-10-13T08:38:20;12.30;99.90
21393;DHT22;10857;52.228;21.026;2022-10-13T08:40:48;12.30;99.90
21393;DHT22;10857;52.228;21.026;2022-10-13T08:43:19;12.30;99.90
21393;DHT22;10857;52.228;21.026;2022-10-13T08:45:54;12.40;99.90
21393;DHT22;10857;52.228;21.026;2022-10-13T08:48:26;12.50;99.90
21393;DHT22;10857;52.228;21.026;2022-10-13T08:51:01;12.60;99.90
21393;DHT22;10857;52.228;21.026;2022-10-13T08:53:35;12.60;99.90
21393;DHT22;10857;52.228;21.026;2022-10-13T08:56:09;12.60;99.90
21393;DHT22;10857;52.228;21.026;2022-10-13T08:58:41;12.60;99.90
21393;DHT22;10857;52.228;21.026;2022-10-13T09:01:15;12.60;99.90
21393;DHT22;10857;52.228;21.026;2022-10-13T09:03:53;12.80;99.90
21393;DHT22;10857;52.228;21.026;2022-10-13T09:08:54;13.00;99.90
21393;DHT22;10857;52.228;21.026;2022-10-13T09:11:25;13.10;99.90
21393;DHT22;10857;52.228;21.026;2022-10-13T09:13:55;13.30;99.90
21393;DHT22;10857;52.228;21.026;2022-10-13T09:16:33;13.30;99.90
21393;DHT22;10857;52.228;21.026;2022-10-13T09:21:54;13.30;99.90
21393;DHT22;10857;52.228;21.026;2022-10-13T09:24:24;13.30;99.90
21393;DHT22;10857;52.228;21.026;2022-10-13T09:27:17;13.30;99.90
21393;DHT22;10857;52.228;21.026;2022-10-13T09:29:45;13.30;99.90
21393;DHT22;10857;52.228;21.026;2022-10-13T09:32:21;13.30;99.90
21393;DHT22;10857;52.228;21.026;2022-10-13T09:34:51;13.60;99.90
21393;DHT22;10857;52.228;21.026;2022-10-13T09:37:22;13.80;99.90
21393;DHT22;10857;52.228;21.026;2022-10-13T09:40:01;14.00;99.90
21393;DHT22;10857;52.228;21.026;2022-10-13T09:42:37;14.20;99.90
21393;DHT22;10857;52.228;21.026;2022-10-13T09:45:19;14.40;99.90
21393;DHT22;10857;52.228;21.026;2022-10-13T09:48:05;14.30;99.90
21393;DHT22;10857;52.228;21.026;2022-10-13T09:50:34;14.10;99.90
21393;DHT22;10857;52.228;21.026;2022-10-13T09:56:21;14.30;99.90
21393;DHT22;10857;52.228;21.026;2022-10-13T10:01:41;14.50;99.90
21393;DHT22;10857;52.228;21.026;2022-10-13T10:04:18;14.60;99.90
21393;DHT22;10857;52.228;21.026;2022-10-13T10:06:46;14.70;99.90
21393;DHT22;10857;52.228;21.026;2022-10-13T10:09:33;14.80;99.90
21393;DHT22;10857;52.228;21.026;2022-10-13T10:12:03;14.80;99.90
21393;DHT22;10857;52.228;21.026;2022-10-13T10:14:34;14.80;99.90
21393;DHT22;10857;52.228;21.026;2022-10-13T10:17:39;14.70;99.90
21393;DHT22;10857;52.228;21.026;2022-10-13T10:20:17;14.70;99.90
21393;DHT22;10857;52.228;21.026;2022-10-13T10:23:05;14.60;99.90
21393;DHT22;10857;52.228;21.026;2022-10-13T10:25:48;14.80;99.90
21393;DHT22;10857;52.228;21.026;2022-10-13T10:36:24;14.80;99.90
21393;DHT22;10857;52.228;21.026;2022-10-13T10:39:02;15.00;99.90
21393;DHT22;10857;52.228;21.026;2022-10-13T10:41:46;14.90;99.90
21393;DHT22;10857;52.228;21.026;2022-10-13T10:44:41;14.90;99.90
21393;DHT22;10857;52.228;21.026;2022-10-13T10:50:06;15.20;99.90
21393;DHT22;10857;52.228;21.026;2022-10-13T10:55:36;15.50;99.90
21393;DHT22;10857;52.228;21.026;2022-10-13T11:00:50;15.50;99.90
21393;DHT22;10857;52.228;21.026;2022-10-13T11:06:01;15.70;99.90
21393;DHT22;10857;52.228;21.026;2022-10-13T11:08:41;15.60;99.90
21393;DHT22;10857;52.228;21.026;2022-10-13T11:19:34;15.60;99.90
21393;DHT22;10857;52.228;21.026;2022-10-13T11:35:21;15.90;99.90
21393;DHT22;10857;52.228;21.026;2022-10-13T11:41:11;16.20;99.90
21393;DHT22;10857;52.228;21.026;2022-10-13T11:53:16;15.80;99.90
21393;DHT22;10857;52.228;21.026;2022-10-13T11:55:54;15.80;99.90
21393;DHT22;10857;52.228;21.026;2022-10-13T11:58:43;15.70;99.90
21393;DHT22;10857;52.228;21.026;2022-10-13T12:01:15;15.90;99.90
21393;DHT22;10857;52.228;21.026;2022-10-13T12:03:45;16.10;99.90
21393;DHT22;10857;52.228;21.026;2022-10-13T12:06:33;16.20;99.90
21393;DHT22;10857;52.228;21.026;2022-10-13T12:09:16;16.40;99.90
21393;DHT22;10857;52.228;21.026;2022-10-13T12:11:44;16.50;99.90
21393;DHT22;10857;52.228;21.026;2022-10-13T12:14:36;16.50;99.90
21393;DHT22;10857;52.228;21.026;2022-10-13T12:17:33;16.40;99.90
21393;DHT22;10857;52.228;21.026;2022-10-13T12:20:32;16.40;99.90
21393;DHT22;10857;52.228;21.026;2022-10-13T12:22:59;16.20;99.90
21393;DHT22;10857;52.228;21.026;2022-10-13T12:25:29;16.00;99.90
21393;DHT22;10857;52.228;21.026;2022-10-13T12:27:58;16.00;99.90
21393;DHT22;10857;52.228;21.026;2022-10-13T12:30:29;16.10;99.90
21393;DHT22;10857;52.228;21.026;2022-10-13T12:32:58;16.00;99.90
21393;DHT22;10857;52.228;21.026;2022-10-13T12:35:29;15.80;99.90
21393;DHT22;10857;52.228;21.026;2022-10-13T12:38:00;15.80;99.90
21393;DHT22;10857;52.228;21.026;2022-10-13T12:40:29;15.90;99.90
21393;DHT22;10857;52.228;21.026;2022-10-13T12:42:56;16.00;99.90
21393;DHT22;10857;52.228;21.026;2022-10-13T12:45:28;16.00;99.90
21393;DHT22;10857;52.228;21.026;2022-10-13T12:47:59;16.00;99.90
21393;DHT22;10857;52.228;21.026;2022-10-13T12:50:32;16.00;99.90
21393;DHT22;10857;52.228;21.026;2022-10-13T12:53:17;16.10;99.90
21393;DHT22;10857;52.228;21.026;2022-10-13T12:55:53;16.20;99.90
21393;DHT22;10857;52.228;21.026;2022-10-13T12:58:27;16.20;99.90
21393;DHT22;10857;52.228;21.026;2022-10-13T13:03:32;16.00;99.90
21393;DHT22;10857;52.228;21.026;2022-10-13T13:06:08;16.10;99.90
21393;DHT22;10857;52.228;21.026;2022-10-13T13:08:37;16.20;99.90
21393;DHT22;10857;52.228;21.026;2022-10-13T13:11:23;16.30;99.90
21393;DHT22;10857;52.228;21.026;2022-10-13T13:17:29;16.50;99.90
21393;DHT22;10857;52.228;21.026;2022-10-13T13:20:33;16.40;99.90
21393;DHT22;10857;52.228;21.026;2022-10-13T13:23:09;16.30;99.90
21393;DHT22;10857;52.228;21.026;2022-10-13T13:25:47;16.30;99.90
21393;DHT22;10857;52.228;21.026;2022-10-13T13:28:21;16.30;99.90
21393;DHT22;10857;52.228;21.026;2022-10-13T13:30:51;16.40;99.90
21393;DHT22;10857;52.228;21.026;2022-10-13T13:33:39;16.40;99.90
21393;DHT22;10857;52.228;21.026;2022-10-13T13:36:20;16.50;99.90
21393;DHT22;10857;52.228;21.026;2022-10-13T13:38:56;16.30;99.90
21393;DHT22;10857;52.228;21.026;2022-10-13T13:41:30;16.30;99.90
21393;DHT22;10857;52.228;21.026;2022-10-13T13:44:11;16.20;99.90
21393;DHT22;10857;52.228;21.026;2022-10-13T13:46:43;16.10;99.90
21393;DHT22;10857;52.228;21.026;2022-10-13T13:49:17;16.00;99.90
21393;DHT22;10857;52.228;21.026;2022-10-13T13:51:47;16.10;99.90
21393;DHT22;10857;52.228;21.026;2022-10-13T13:54:28;16.10;99.90
21393;DHT22;10857;52.228;21.026;2022-10-13T13:57:01;16.20;99.90
21393;DHT22;10857;52.228;21.026;2022-10-13T13:59:32;16.20;99.90
21393;DHT22;10857;52.228;21.026;2022-10-13T14:02:19;16.10;99.90
21393;DHT22;10857;52.228;21.026;2022-10-13T14:04:49;15.90;99.90
21393;DHT22;10857;52.228;21.026;2022-10-13T14:07:19;15.90;99.90
21393;DHT22;10857;52.228;21.026;2022-10-13T14:09:57;16.00;99.90
21393;DHT22;10857;52.228;21.026;2022-10-13T14:12:29;16.00;99.90
21393;DHT22;10857;52.228;21.026;2022-10-13T14:14:56;16.20;99.90
21393;DHT22;10857;52.228;21.026;2022-10-13T14:17:27;16.30;99.90
21393;DHT22;10857;52.228;21.026;2022-10-13T14:19:56;16.10;99.90
21393;DHT22;10857;52.228;21.026;2022-10-13T14:22:26;16.20;99.90
21393;DHT22;10857;52.228;21.026;2022-10-13T14:24:55;16.10;99.90
21393;DHT22;10857;52.228;21.026;2022-10-13T14:27:22;16.10;99.90
21393;DHT22;10857;52.228;21.026;2022-10-13T14:29:51;16.00;99.90
21393;DHT22;10857;52.228;21.026;2022-10-13T14:32:19;15.90;99.90
21393;DHT22;10857;52.228;21.026;2022-10-13T14:34:52;16.00;99.90
21393;DHT22;10857;52.228;21.026;2022-10-13T14:37:21;15.90;99.90
21393;DHT22;10857;52.228;21.026;2022-10-13T14:39:59;15.80;99.90
21393;DHT22;10857;52.228;21.026;2022-10-13T14:42:26;15.70;99.90
21393;DHT22;10857;52.228;21.026;2022-10-13T14:44:53;15.60;99.90
21393;DHT22;10857;52.228;21.026;2022-10-13T14:47:21;15.60;99.90
21393;DHT22;10857;52.228;21.026;2022-10-13T14:49:48;15.60;99.90
21393;DHT22;10857;52.228;21.026;2022-10-13T14:52:15;15.60;99.90
21393;DHT22;10857;52.228;21.026;2022-10-13T14:54:42;15.70;99.90
21393;DHT22;10857;52.228;21.026;2022-10-13T14:57:11;15.60;99.90
21393;DHT22;10857;52.228;21.026;2022-10-13T14:59:45;15.50;99.90
21393;DHT22;10857;52.228;21.026;2022-10-13T15:02:13;15.40;99.90
21393;DHT22;10857;52.228;21.026;2022-10-13T15:04:50;15.40;99.90
21393;DHT22;10857;52.228;21.026;2022-10-13T15:07:18;15.50;99.90
21393;DHT22;10857;52.228;21.026;2022-10-13T15:09:46;15.50;99.90
21393;DHT22;10857;52.228;21.026;2022-10-13T15:12:32;15.50;99.90
21393;DHT22;10857;52.228;21.026;2022-10-13T15:15:05;15.40;99.90
21393;DHT22;10857;52.228;21.026;2022-10-13T15:17:33;15.30;99.90
21393;DHT22;10857;52.228;21.026;2022-10-13T15:20:00;15.20;99.90
21393;DHT22;10857;52.228;21.026;2022-10-13T15:22:29;15.10;99.90
21393;DHT22;10857;52.228;21.026;2022-10-13T15:24:57;15.10;99.90
21393;DHT22;10857;52.228;21.026;2022-10-13T15:27:24;15.00;99.90
21393;DHT22;10857;52.228;21.026;2022-10-13T15:29:51;15.00;99.90
21393;DHT22;10857;52.228;21.026;2022-10-13T15:32:20;14.90;99.90
21393;DHT22;10857;52.228;21.026;2022-10-13T15:34:51;14.90;99.90
21393;DHT22;10857;52.228;21.026;2022-10-13T15:37:18;14.80;99.90
21393;DHT22;10857;52.228;21.026;2022-10-13T15:39:45;14.70;99.90
21393;DHT22;10857;52.228;21.026;2022-10-13T15:42:14;14.70;99.90
21393;DHT22;10857;52.228;21.026;2022-10-13T15:44:42;14.60;99.90
21393;DHT22;10857;52.228;21.026;2022-10-13T15:47:30;14.60;99.90
21393;DHT22;10857;52.228;21.026;2022-10-13T15:50:00;14.50;99.90
21393;DHT22;10857;52.228;21.026;2022-10-13T15:52:27;14.50;99.90
21393;DHT22;10857;52.228;21.026;2022-10-13T15:55:00;14.50;99.90
21393;DHT22;10857;52.228;21.026;2022-10-13T15:57:29;14.50;99.90
21393;DHT22;10857;52.228;21.026;2022-10-13T15:59:56;14.50;99.90
21393;DHT22;10857;52.228;21.026;2022-10-13T16:02:23;14.40;99.90
21393;DHT22;10857;52.228;21.026;2022-10-13T16:04:50;14.30;99.90
21393;DHT22;10857;52.228;21.026;2022-10-13T16:07:17;14.30;99.90
21393;DHT22;10857;52.228;21.026;2022-10-13T16:09:44;14.30;99.90
21393;DHT22;10857;52.228;21.026;2022-10-13T16:12:11;14.20;99.90
21393;DHT22;10857;52.228;21.026;2022-10-13T16:14:38;14.20;99.90
21393;DHT22;10857;52.228;21.026;2022-10-13T16:17:05;14.20;99.90
21393;DHT22;10857;52.228;21.026;2022-10-13T16:19:32;14.20;99.90
21393;DHT22;10857;52.228;21.026;2022-10-13T16:21:59;14.20;99.90
21393;DHT22;10857;52.228;21.026;2022-10-13T16:24:28;14.20;99.90
21393;DHT22;10857;52.228;21.026;2022-10-13T16:26:54;14.10;99.90
21393;DHT22;10857;52.228;21.026;2022-10-13T16:29:22;14.10;99.90
21393;DHT22;10857;52.228;21.026;2022-10-13T16:31:49;14.10;99.90
21393;DHT22;10857;52.228;21.026;2022-10-13T16:34:16;14.10;99.90
21393;DHT22;10857;52.228;21.026;2022-10-13T16:36:44;14.00;99.90
21393;DHT22;10857;52.228;21.026;2022-10-13T16:39:11;14.00;99.90
21393;DHT22;10857;52.228;21.026;2022-10-13T16:41:38;13.90;99.90
21393;DHT22;10857;52.228;21.026;2022-10-13T16:44:05;13.80;99.90
21393;DHT22;10857;52.228;21.026;2022-10-13T16:46:32;13.80;99.90
21393;DHT22;10857;52.228;21.026;2022-10-13T16:48:59;13.70;99.90
21393;DHT22;10857;52.228;21.026;2022-10-13T16:51:27;13.70;99.90
21393;DHT22;10857;52.228;21.026;2022-10-13T16:53:57;13.70;99.90
21393;DHT22;10857;52.228;21.026;2022-10-13T16:56:32;13.60;99.90
21393;DHT22;10857;52.228;21.026;2022-10-13T16:59:04;13.60;99.90
21393;DHT22;10857;52.228;21.026;2022-10-13T17:01:43;13.50;99.90
21393;DHT22;10857;52.228;21.026;2022-10-13T17:04:12;13.40;99.90
21393;DHT22;10857;52.228;21.026;2022-10-13T17:06:48;13.40;99.90
21393;DHT22;10857;52.228;21.026;2022-10-13T17:09:21;13.40;99.90
21393;DHT22;10857;52.228;21.026;2022-10-13T17:11:49;13.30;99.90
21393;DHT22;10857;52.228;21.026;2022-10-13T17:14:18;13.30;99.90
21393;DHT22;10857;52.228;21.026;2022-10-13T17:16:47;13.20;99.90
21393;DHT22;10857;52.228;21.026;2022-10-13T17:19:15;13.20;99.90
21393;DHT22;10857;52.228;21.026;2022-10-13T17:21:43;13.20;99.90
21393;DHT22;10857;52.228;21.026;2022-10-13T17:24:12;13.20;99.90
21393;DHT22;10857;52.228;21.026;2022-10-13T17:26:47;13.20;99.90
21393;DHT22;10857;52.228;21.026;2022-10-13T17:29:21;13.10;99.90
21393;DHT22;10857;52.228;21.026;2022-10-13T17:31:55;13.20;99.90
21393;DHT22;10857;52.228;21.026;2022-10-13T17:34:22;13.10;99.90
21393;DHT22;10857;52.228;21.026;2022-10-13T17:36:53;13.00;99.90
21393;DHT22;10857;52.228;21.026;2022-10-13T17:39:21;13.00;99.90
21393;DHT22;10857;52.228;21.026;2022-10-13T17:41:51;12.90;99.90
21393;DHT22;10857;52.228;21.026;2022-10-13T17:44:19;12.80;99.90
21393;DHT22;10857;52.228;21.026;2022-10-13T17:46:49;12.70;99.90
21393;DHT22;10857;52.228;21.026;2022-10-13T17:49:20;12.70;99.90
21393;DHT22;10857;52.228;21.026;2022-10-13T17:51:57;12.70;99.90
21393;DHT22;10857;52.228;21.026;2022-10-13T17:54:25;12.70;99.90
21393;DHT22;10857;52.228;21.026;2022-10-13T17:57:00;12.70;99.90
21393;DHT22;10857;52.228;21.026;2022-10-13T17:59:28;12.70;99.90
21393;DHT22;10857;52.228;21.026;2022-10-13T18:02:04;12.70;99.90
21393;DHT22;10857;52.228;21.026;2022-10-13T18:04:32;12.70;99.90
21393;DHT22;10857;52.228;21.026;2022-10-13T18:07:03;12.60;99.90
21393;DHT22;10857;52.228;21.026;2022-10-13T18:09:31;12.60;99.90
21393;DHT22;10857;52.228;21.026;2022-10-13T18:11:59;12.50;99.90
21393;DHT22;10857;52.228;21.026;2022-10-13T18:14:29;12.40;99.90
21393;DHT22;10857;52.228;21.026;2022-10-13T18:17:00;12.40;99.90
21393;DHT22;10857;52.228;21.026;2022-10-13T18:19:44;12.40;99.90
21393;DHT22;10857;52.228;21.026;2022-10-13T18:22:11;12.30;99.90
21393;DHT22;10857;52.228;21.026;2022-10-13T18:24:38;12.30;99.90
21393;DHT22;10857;52.228;21.026;2022-10-13T18:27:06;12.30;99.90
21393;DHT22;10857;52.228;21.026;2022-10-13T18:29:34;12.30;99.90
21393;DHT22;10857;52.228;21.026;2022-10-13T18:32:02;12.20;99.90
21393;DHT22;10857;52.228;21.026;2022-10-13T18:34:32;12.20;99.90
21393;DHT22;10857;52.228;21.026;2022-10-13T18:37:01;12.20;99.90
21393;DHT22;10857;52.228;21.026;2022-10-13T18:39:33;12.10;99.90
21393;DHT22;10857;52.228;21.026;2022-10-13T18:42:12;12.10;99.90
21393;DHT22;10857;52.228;21.026;2022-10-13T18:44:44;12.10;99.90
21393;DHT22;10857;52.228;21.026;2022-10-13T18:47:13;12.10;99.90
21393;DHT22;10857;52.228;21.026;2022-10-13T18:49:40;12.00;99.90
21393;DHT22;10857;52.228;21.026;2022-10-13T18:52:07;12.10;99.90
21393;DHT22;10857;52.228;21.026;2022-10-13T18:54:38;12.00;99.90
21393;DHT22;10857;52.228;21.026;2022-10-13T18:57:06;12.00;99.90
21393;DHT22;10857;52.228;21.026;2022-10-13T18:59:33;11.90;99.90
21393;DHT22;10857;52.228;21.026;2022-10-13T19:02:04;11.90;99.90
21393;DHT22;10857;52.228;21.026;2022-10-13T19:04:35;11.80;99.90
21393;DHT22;10857;52.228;21.026;2022-10-13T19:07:02;11.90;99.90
21393;DHT22;10857;52.228;21.026;2022-10-13T19:09:33;11.90;99.90
21393;DHT22;10857;52.228;21.026;2022-10-13T19:12:04;11.90;99.90
21393;DHT22;10857;52.228;21.026;2022-10-13T19:14:33;11.80;99.90
21393;DHT22;10857;52.228;21.026;2022-10-13T19:17:00;11.80;99.90
21393;DHT22;10857;52.228;21.026;2022-10-13T19:19:33;11.70;99.90
21393;DHT22;10857;52.228;21.026;2022-10-13T19:22:02;11.70;99.90
21393;DHT22;10857;52.228;21.026;2022-10-13T19:24:30;11.60;99.90
21393;DHT22;10857;52.228;21.026;2022-10-13T19:27:01;11.60;99.90
21393;DHT22;10857;52.228;21.026;2022-10-13T19:29:28;11.50;99.90
21393;DHT22;10857;52.228;21.026;2022-10-13T19:31:57;11.50;99.90
21393;DHT22;10857;52.228;21.026;2022-10-13T19:34:25;11.50;99.90
21393;DHT22;10857;52.228;21.026;2022-10-13T19:36:56;11.50;99.90
21393;DHT22;10857;52.228;21.026;2022-10-13T19:39:25;11.50;99.90
21393;DHT22;10857;52.228;21.026;2022-10-13T19:41:55;11.50;99.90
21393;DHT22;10857;52.228;21.026;2022-10-13T19:44:23;11.40;99.90
21393;DHT22;10857;52.228;21.026;2022-10-13T19:46:53;11.40;99.90
21393;DHT22;10857;52.228;21.026;2022-10-13T19:49:22;11.40;99.90
21393;DHT22;10857;52.228;21.026;2022-10-13T19:51:52;11.30;99.90
21393;DHT22;10857;52.228;21.026;2022-10-13T19:54:19;11.30;99.90
21393;DHT22;10857;52.228;21.026;2022-10-13T19:56:48;11.30;99.90
21393;DHT22;10857;52.228;21.026;2022-10-13T19:59:18;11.30;99.90
21393;DHT22;10857;52.228;21.026;2022-10-13T20:01:52;11.20;99.90
21393;DHT22;10857;52.228;21.026;2022-10-13T20:04:19;11.20;99.90
21393;DHT22;10857;52.228;21.026;2022-10-13T20:06:48;11.30;99.90
21393;DHT22;10857;52.228;21.026;2022-10-13T20:09:17;11.30;99.90
21393;DHT22;10857;52.228;21.026;2022-10-13T20:11:46;11.20;99.90
21393;DHT22;10857;52.228;21.026;2022-10-13T20:14:14;11.20;99.90
21393;DHT22;10857;52.228;21.026;2022-10-13T20:16:42;11.30;99.90
21393;DHT22;10857;52.228;21.026;2022-10-13T20:19:16;11.20;99.90
21393;DHT22;10857;52.228;21.026;2022-10-13T20:21:46;11.30;99.90
21393;DHT22;10857;52.228;21.026;2022-10-13T20:24:13;11.30;99.90
21393;DHT22;10857;52.228;21.026;2022-10-13T20:26:43;11.20;99.90
21393;DHT22;10857;52.228;21.026;2022-10-13T20:29:11;11.20;99.90
21393;DHT22;10857;52.228;21.026;2022-10-13T20:31:39;11.20;99.90
21393;DHT22;10857;52.228;21.026;2022-10-13T20:34:09;11.20;99.90
21393;DHT22;10857;52.228;21.026;2022-10-13T20:36:36;11.20;99.90
21393;DHT22;10857;52.228;21.026;2022-10-13T20:39:05;11.20;99.90
21393;DHT22;10857;52.228;21.026;2022-10-13T20:41:32;11.10;99.90
21393;DHT22;10857;52.228;21.026;2022-10-13T20:44:00;11.20;99.90
21393;DHT22;10857;52.228;21.026;2022-10-13T20:46:32;11.20;99.90
21393;DHT22;10857;52.228;21.026;2022-10-13T20:49:00;11.10;99.90
21393;DHT22;10857;52.228;21.026;2022-10-13T20:51:43;11.10;99.90
21393;DHT22;10857;52.228;21.026;2022-10-13T20:54:13;11.00;99.90
21393;DHT22;10857;52.228;21.026;2022-10-13T20:56:41;11.00;99.90
21393;DHT22;10857;52.228;21.026;2022-10-13T20:59:12;10.90;99.90
21393;DHT22;10857;52.228;21.026;2022-10-13T21:01:42;10.90;99.90
21393;DHT22;10857;52.228;21.026;2022-10-13T21:04:11;10.90;99.90
21393;DHT22;10857;52.228;21.026;2022-10-13T21:06:43;10.90;99.90
21393;DHT22;10857;52.228;21.026;2022-10-13T21:09:16;10.90;99.90
21393;DHT22;10857;52.228;21.026;2022-10-13T21:11:54;10.90;99.90
21393;DHT22;10857;52.228;21.026;2022-10-13T21:14:24;10.90;99.90
21393;DHT22;10857;52.228;21.026;2022-10-13T21:16:51;10.90;99.90
21393;DHT22;10857;52.228;21.026;2022-10-13T21:19:19;10.80;99.90
21393;DHT22;10857;52.228;21.026;2022-10-13T21:21:46;10.70;99.90
21393;DHT22;10857;52.228;21.026;2022-10-13T21:24:14;10.70;99.90
21393;DHT22;10857;52.228;21.026;2022-10-13T21:26:42;10.60;99.90
21393;DHT22;10857;52.228;21.026;2022-10-13T21:29:12;10.60;99.90
21393;DHT22;10857;52.228;21.026;2022-10-13T21:31:39;10.60;99.90
21393;DHT22;10857;52.228;21.026;2022-10-13T21:34:06;10.50;99.90
21393;DHT22;10857;52.228;21.026;2022-10-13T21:36:33;10.50;99.90
21393;DHT22;10857;52.228;21.026;2022-10-13T21:39:03;10.50;99.90
21393;DHT22;10857;52.228;21.026;2022-10-13T21:41:31;10.50;99.90
21393;DHT22;10857;52.228;21.026;2022-10-13T21:43:58;10.40;99.90
21393;DHT22;10857;52.228;21.026;2022-10-13T21:46:31;10.40;99.90
21393;DHT22;10857;52.228;21.026;2022-10-13T21:49:00;10.40;99.90
21393;DHT22;10857;52.228;21.026;2022-10-13T21:51:31;10.40;99.90
21393;DHT22;10857;52.228;21.026;2022-10-13T21:54:02;10.40;99.90
21393;DHT22;10857;52.228;21.026;2022-10-13T21:56:33;10.40;99.90
21393;DHT22;10857;52.228;21.026;2022-10-13T21:59:01;10.40;99.90
21393;DHT22;10857;52.228;21.026;2022-10-13T22:05:00;10.40;99.90
21393;DHT22;10857;52.228;21.026;2022-10-13T22:07:29;10.40;99.90
21393;DHT22;10857;52.228;21.026;2022-10-13T22:09:56;10.40;99.90
21393;DHT22;10857;52.228;21.026;2022-10-13T22:12:24;10.40;99.90
21393;DHT22;10857;52.228;21.026;2022-10-13T22:14:51;10.30;99.90
21393;DHT22;10857;52.228;21.026;2022-10-13T22:17:19;10.20;99.90
21393;DHT22;10857;52.228;21.026;2022-10-13T22:19:51;10.20;99.90
21393;DHT22;10857;52.228;21.026;2022-10-13T22:22:18;10.20;99.90
21393;DHT22;10857;52.228;21.026;2022-10-13T22:24:45;10.10;99.90
21393;DHT22;10857;52.228;21.026;2022-10-13T22:27:12;10.10;99.90
21393;DHT22;10857;52.228;21.026;2022-10-13T22:29:39;10.10;99.90
